Nearby METAR Reports

 

KMTN - Baltimore/Martin, Maryland, USA
Distance from station: SSE 8mi, 13km
Updated: Mon, 03-Aug-2015 12:09am EDT
Clear
Clear
 Wind from SSW
Wind: SSW 3 mph , 6 km/h
Temperature: 77°F , 25°C
Dew Point: 64°F , 18°C
Humidity: 65%
Barometer: 29.89 inHg , 1012.2 hPa
Clouds: Clear
Visibility: 10 miles , 16 km
2015/08/03 04:09 KMTN 030409Z AUTO 20003KT 10SM CLR 25/18 A2989 RMK AO2
KDMH - Baltimore/Dwntwn, Maryland, USA
Distance from station: SW 12mi, 19km
Updated: Sun, 02-Aug-2015 11:54pm EDT

 
Temperature: 79°F , 26°C
Dew Point: 59°F , 15°C
Humidity: 51%
Barometer: 29.89 inHg , 1012.2 hPa
2015/08/03 03:54 KDMH 030354Z AUTO 26/15 A2989 RMK AO1 SLP121 T02560150
 
KBWI - Balto/Wash Intl, Maryland, USA
Distance from station: SSW 20mi, 33km
Updated: Sun, 02-Aug-2015 11:54pm EDT
Clear
Clear
 Wind from SW
Wind: SW 5 mph , 7 km/h
Temperature: 73°F , 23°C
Dew Point: 59°F , 15°C
Humidity: 61%
Barometer: 29.88 inHg , 1011.9 hPa
Clouds: Clear
Visibility: 10 miles , 16 km
2015/08/03 03:54 KBWI 030354Z 22004KT 10SM CLR 23/15 A2988 RMK AO2 SLP118 T02280150
KDMW - Carroll Cnty, Maryland, USA
Distance from station: WNW 30mi, 48km
Updated: Mon, 03-Aug-2015 12:05am EDT
Clear
Clear
 Wind from SW
Wind: SW 6 mph , 9 km/h
Temperature: 73°F , 23°C
Dew Point: 59°F , 15°C
Humidity: 61%
Barometer: 29.91 inHg , 1012.9 hPa
Clouds: Clear
Visibility: 10 miles , 16 km
2015/08/03 04:05 KDMW 030405Z AUTO 23005KT 10SM CLR 23/15 A2991 RMK AO2
 
KNAK - Annapolis/Naval, Maryland, USA
Distance from station: S 30mi, 48km
Updated: Sun, 02-Aug-2015 11:54pm EDT
Clear
Clear
 Wind from calm
Wind: Calm
Temperature: 75°F , 24°C
Dew Point: 61°F , 16°C
Humidity: 61%
Barometer: 29.89 inHg , 1012.2 hPa
Clouds: Clear
Visibility: 10 miles , 16 km
2015/08/03 03:54 KNAK 030354Z AUTO 00000KT 10SM CLR 24/16 A2989 RMK AO2 SLP122 T02390161
KW29 - Stevensville, Maryland, USA
Distance from station: SSE 31mi, 50km
Updated: Mon, 03-Aug-2015 12:08am EDT

 Wind from S
Wind: S 5 mph , 7 km/h
Temperature: 77°F , 25°C
Dew Point: 63°F , 17°C
Humidity: 61%
Barometer: 29.89 inHg , 1012.2 hPa
Visibility: 10 miles , 16 km
2015/08/03 04:08 KW29 030408Z AUTO 19004KT 10SM 25/17 A2989 RMK AO1
 
KCGS - College Park, Maryland, USA
Distance from station: SW 38mi, 61km
Updated: Mon, 03-Aug-2015 12:00am EDT
Clear
Clear
 Wind from calm
Wind: Calm
Temperature: 70°F , 21°C
Dew Point: 63°F , 17°C
Humidity: 78%
Barometer: 29.89 inHg , 1012.2 hPa
Clouds: Clear
Visibility: 10 miles , 16 km
2015/08/03 04:00 KCGS 030400Z AUTO 00000KT 10SM CLR 21/17 A2989 RMK AO1
KGAI - Gaithersburg, Maryland, USA
Distance from station: WSW 40mi, 65km
Updated: Mon, 03-Aug-2015 12:15am EDT
Clear
Clear
 Wind from calm
Wind: Calm
Temperature: 72°F , 22°C
Dew Point: 59°F , 15°C
Humidity: 65%
Barometer: 29.94 inHg , 1013.9 hPa
Clouds: Clear
Visibility: 10 miles , 16 km
2015/08/03 04:15 KGAI 030415Z AUTO 00000KT 10SM CLR 22/15 A2994 RMK AO1
 
KTHV - York, Pennsylvania, USA
Distance from station: NNW 40mi, 65km
Updated: Sun, 02-Aug-2015 11:53pm EDT
Clear
Clear
 Wind from SW
Wind: SW 7 mph , 11 km/h
Temperature: 73°F , 23°C
Dew Point: 61°F , 16°C
Humidity: 65%
Barometer: 29.89 inHg , 1012.2 hPa
Clouds: Clear
Visibility: 10 miles , 16 km
2015/08/03 03:53 KTHV 030353Z AUTO 22006KT 10SM CLR 23/16 A2989 RMK AO2 SLP120 T02330156
KFDK - Frederick, Maryland, USA
Distance from station: W 47mi, 75km
Updated: Mon, 03-Aug-2015 12:10am EDT
Clear
Clear
 Wind from calm
Wind: Calm
Temperature: 64°F , 18°C
Dew Point: 64°F , 18°C
Humidity: 100%
Barometer: 29.92 inHg , 1013.2 hPa
Clouds: Clear
Visibility: 10 miles , 16 km
2015/08/03 04:10 KFDK 030410Z AUTO 00000KT 10SM CLR 18/18 A2992 RMK AO2 LTG DSNT E
 
KESN - Easton/Newnam, Maryland, USA
Distance from station: SSE 48mi, 78km
Updated: Mon, 03-Aug-2015 12:27am EDT
Clear
Clear
 Wind from calm
Wind: Calm
Temperature: 73°F , 23°C
Dew Point: 66°F , 19°C
Humidity: 78%
Barometer: 29.94 inHg , 1013.9 hPa
Clouds: Clear
Visibility: 10 miles , 16 km
2015/08/03 04:27 KESN 030427Z AUTO 00000KT 10SM CLR 23/19 A2994 RMK AO2 T02270186
KDCA - Washington/Natl, Washington D.c., USA
Distance from station: SW 49mi, 79km
Updated: Sun, 02-Aug-2015 11:52pm EDT
Clear
Clear
 Wind from SSW
Wind: SSW 5 mph , 7 km/h
Temperature: 77°F , 25°C
Dew Point: 64°F , 18°C
Humidity: 65%
Barometer: 29.90 inHg , 1012.5 hPa
Clouds: Clear
Visibility: 10 miles , 16 km
2015/08/03 03:52 KDCA 030352Z 20004KT 10SM CLR 25/18 A2990 RMK AO2 SLP126 T02500178
 
KLNS - Lancaster, Pennsylvania, USA
Distance from station: N 49mi, 79km
Updated: Sun, 02-Aug-2015 11:53pm EDT
Clear
Clear
 Wind from W
Wind: W 5 mph , 7 km/h
Temperature: 72°F , 22°C
Dew Point: 63°F , 17°C
Humidity: 73%
Barometer: 29.88 inHg , 1011.9 hPa
Clouds: Clear
Visibility: 10 miles , 16 km
2015/08/03 03:53 KLNS 030353Z AUTO 27004KT 10SM CLR 22/17 A2988 RMK AO2 SLP116 T02170167
KILG - Wilmington, Delaware, USA
Distance from station: ENE 50mi, 81km
Updated: Sun, 02-Aug-2015 11:51pm EDT
Clear
Clear
 Wind from SSW
Wind: SSW 6 mph , 9 km/h
Temperature: 73°F , 23°C
Dew Point: 61°F , 16°C
Humidity: 65%
Barometer: 29.89 inHg , 1012.2 hPa
Clouds: Clear
Visibility: 10 miles , 16 km
2015/08/03 03:51 KILG 030351Z AUTO 20005KT 10SM CLR 23/16 A2989 RMK AO2 SLP120 T02330161 $